sensor_id;sensor_type;location;lat;lon;timestamp;temperature;humidity
24146;DHT22;12308;50.948;4.706;2023-01-08T00:01:43;11.50;99.90
24146;DHT22;12308;50.948;4.706;2023-01-08T00:04:09;11.60;99.90
24146;DHT22;12308;50.948;4.706;2023-01-08T00:06:35;11.70;99.90
24146;DHT22;12308;50.948;4.706;2023-01-08T00:09:00;11.70;99.90
24146;DHT22;12308;50.948;4.706;2023-01-08T00:11:26;11.60;99.90
24146;DHT22;12308;50.948;4.706;2023-01-08T00:13:52;11.60;99.90
24146;DHT22;12308;50.948;4.706;2023-01-08T00:16:18;11.60;99.90
24146;DHT22;12308;50.948;4.706;2023-01-08T00:18:46;11.70;99.90
24146;DHT22;12308;50.948;4.706;2023-01-08T00:21:12;11.90;99.90
24146;DHT22;12308;50.948;4.706;2023-01-08T00:23:38;11.80;99.90
24146;DHT22;12308;50.948;4.706;2023-01-08T00:26:07;11.80;99.90
24146;DHT22;12308;50.948;4.706;2023-01-08T00:28:34;11.80;99.90
24146;DHT22;12308;50.948;4.706;2023-01-08T00:31:05;11.80;99.90
24146;DHT22;12308;50.948;4.706;2023-01-08T00:33:31;11.90;99.90
24146;DHT22;12308;50.948;4.706;2023-01-08T00:35:57;11.80;99.90
24146;DHT22;12308;50.948;4.706;2023-01-08T00:38:26;11.80;99.90
24146;DHT22;12308;50.948;4.706;2023-01-08T00:40:52;11.80;99.90
24146;DHT22;12308;50.948;4.706;2023-01-08T00:43:18;11.80;99.90
24146;DHT22;12308;50.948;4.706;2023-01-08T00:45:44;11.80;99.90
24146;DHT22;12308;50.948;4.706;2023-01-08T00:48:09;11.70;99.90
24146;DHT22;12308;50.948;4.706;2023-01-08T00:50:35;11.60;99.90
24146;DHT22;12308;50.948;4.706;2023-01-08T00:53:01;11.30;99.90
24146;DHT22;12308;50.948;4.706;2023-01-08T00:55:28;11.00;99.90
24146;DHT22;12308;50.948;4.706;2023-01-08T00:57:54;10.80;99.90
24146;DHT22;12308;50.948;4.706;2023-01-08T01:00:22;10.70;99.90
24146;DHT22;12308;50.948;4.706;2023-01-08T01:02:48;10.60;99.90
24146;DHT22;12308;50.948;4.706;2023-01-08T01:05:14;10.60;99.90
24146;DHT22;12308;50.948;4.706;2023-01-08T01:07:42;10.50;99.90
24146;DHT22;12308;50.948;4.706;2023-01-08T01:10:09;10.40;99.90
24146;DHT22;12308;50.948;4.706;2023-01-08T01:12:36;10.20;99.90
24146;DHT22;12308;50.948;4.706;2023-01-08T01:15:07;10.30;99.90
24146;DHT22;12308;50.948;4.706;2023-01-08T01:17:33;10.20;99.90
24146;DHT22;12308;50.948;4.706;2023-01-08T01:19:59;10.10;99.90
24146;DHT22;12308;50.948;4.706;2023-01-08T01:22:25;10.20;99.90
24146;DHT22;12308;50.948;4.706;2023-01-08T01:24:51;10.10;99.90
24146;DHT22;12308;50.948;4.706;2023-01-08T01:27:16;10.00;99.90
24146;DHT22;12308;50.948;4.706;2023-01-08T01:29:42;10.00;99.90
24146;DHT22;12308;50.948;4.706;2023-01-08T01:32:08;9.90;99.90
24146;DHT22;12308;50.948;4.706;2023-01-08T01:34:33;9.90;99.90
24146;DHT22;12308;50.948;4.706;2023-01-08T01:36:59;9.90;99.90
24146;DHT22;12308;50.948;4.706;2023-01-08T01:39:25;9.90;99.90
24146;DHT22;12308;50.948;4.706;2023-01-08T01:41:51;9.80;99.90
24146;DHT22;12308;50.948;4.706;2023-01-08T01:44:42;9.80;99.90
24146;DHT22;12308;50.948;4.706;2023-01-08T01:47:29;9.70;99.90
24146;DHT22;12308;50.948;4.706;2023-01-08T01:52:35;9.70;99.90
24146;DHT22;12308;50.948;4.706;2023-01-08T01:55:03;9.70;99.90
24146;DHT22;12308;50.948;4.706;2023-01-08T01:57:30;9.80;99.90
24146;DHT22;12308;50.948;4.706;2023-01-08T01:59:58;9.90;99.90
24146;DHT22;12308;50.948;4.706;2023-01-08T02:02:24;9.90;99.90
24146;DHT22;12308;50.948;4.706;2023-01-08T02:04:50;9.80;99.90
24146;DHT22;12308;50.948;4.706;2023-01-08T02:10:16;9.80;99.90
24146;DHT22;12308;50.948;4.706;2023-01-08T02:13:16;9.70;99.90
24146;DHT22;12308;50.948;4.706;2023-01-08T02:15:57;9.80;99.90
24146;DHT22;12308;50.948;4.706;2023-01-08T02:18:36;9.70;99.90
24146;DHT22;12308;50.948;4.706;2023-01-08T02:21:10;9.90;99.90
24146;DHT22;12308;50.948;4.706;2023-01-08T02:23:59;10.00;99.90
24146;DHT22;12308;50.948;4.706;2023-01-08T02:26:34;10.00;99.90
24146;DHT22;12308;50.948;4.706;2023-01-08T02:29:07;9.90;99.90
24146;DHT22;12308;50.948;4.706;2023-01-08T02:31:35;9.90;99.90
24146;DHT22;12308;50.948;4.706;2023-01-08T02:34:02;9.80;99.90
24146;DHT22;12308;50.948;4.706;2023-01-08T02:36:43;9.90;99.90
24146;DHT22;12308;50.948;4.706;2023-01-08T02:44:46;9.80;99.90
24146;DHT22;12308;50.948;4.706;2023-01-08T02:47:22;9.90;99.90
24146;DHT22;12308;50.948;4.706;2023-01-08T02:49:56;9.90;99.90
24146;DHT22;12308;50.948;4.706;2023-01-08T02:52:26;9.90;99.90
24146;DHT22;12308;50.948;4.706;2023-01-08T02:54:54;10.00;99.90
24146;DHT22;12308;50.948;4.706;2023-01-08T02:57:21;10.10;99.90
24146;DHT22;12308;50.948;4.706;2023-01-08T02:59:49;10.20;99.90
24146;DHT22;12308;50.948;4.706;2023-01-08T03:02:15;10.20;99.90
24146;DHT22;12308;50.948;4.706;2023-01-08T03:04:54;10.40;99.90
24146;DHT22;12308;50.948;4.706;2023-01-08T03:07:22;10.50;99.90
24146;DHT22;12308;50.948;4.706;2023-01-08T03:09:48;10.50;99.90
24146;DHT22;12308;50.948;4.706;2023-01-08T03:12:35;10.60;99.90
24146;DHT22;12308;50.948;4.706;2023-01-08T03:15:07;10.70;99.90
24146;DHT22;12308;50.948;4.706;2023-01-08T03:17:40;10.60;99.90
24146;DHT22;12308;50.948;4.706;2023-01-08T03:20:11;10.50;99.90
24146;DHT22;12308;50.948;4.706;2023-01-08T03:22:40;10.40;99.90
24146;DHT22;12308;50.948;4.706;2023-01-08T03:25:07;10.30;99.90
24146;DHT22;12308;50.948;4.706;2023-01-08T03:27:43;10.30;99.90
24146;DHT22;12308;50.948;4.706;2023-01-08T03:30:10;10.10;99.90
24146;DHT22;12308;50.948;4.706;2023-01-08T03:32:38;10.00;99.90
24146;DHT22;12308;50.948;4.706;2023-01-08T03:35:07;9.90;99.90
24146;DHT22;12308;50.948;4.706;2023-01-08T03:37:38;10.00;99.90
24146;DHT22;12308;50.948;4.706;2023-01-08T03:40:22;9.90;99.90
24146;DHT22;12308;50.948;4.706;2023-01-08T03:42:49;9.90;99.90
24146;DHT22;12308;50.948;4.706;2023-01-08T03:45:15;10.00;99.90
24146;DHT22;12308;50.948;4.706;2023-01-08T03:47:40;10.00;99.90
24146;DHT22;12308;50.948;4.706;2023-01-08T03:50:10;10.00;99.90
24146;DHT22;12308;50.948;4.706;2023-01-08T03:52:37;9.80;99.90
24146;DHT22;12308;50.948;4.706;2023-01-08T03:55:03;9.80;99.90
24146;DHT22;12308;50.948;4.706;2023-01-08T03:57:28;9.90;99.90
24146;DHT22;12308;50.948;4.706;2023-01-08T03:59:54;10.00;99.90
24146;DHT22;12308;50.948;4.706;2023-01-08T04:02:20;10.00;99.90
24146;DHT22;12308;50.948;4.706;2023-01-08T04:04:46;9.90;99.90
24146;DHT22;12308;50.948;4.706;2023-01-08T04:07:12;9.90;99.90
24146;DHT22;12308;50.948;4.706;2023-01-08T04:09:38;9.80;99.90
24146;DHT22;12308;50.948;4.706;2023-01-08T04:12:04;9.80;99.90
24146;DHT22;12308;50.948;4.706;2023-01-08T04:14:29;9.80;99.90
24146;DHT22;12308;50.948;4.706;2023-01-08T04:16:55;9.80;99.90
24146;DHT22;12308;50.948;4.706;2023-01-08T04:19:21;9.90;99.90
24146;DHT22;12308;50.948;4.706;2023-01-08T04:21:51;9.70;99.90
24146;DHT22;12308;50.948;4.706;2023-01-08T04:24:17;9.70;99.90
24146;DHT22;12308;50.948;4.706;2023-01-08T04:26:43;9.70;99.90
24146;DHT22;12308;50.948;4.706;2023-01-08T04:29:10;9.60;99.90
24146;DHT22;12308;50.948;4.706;2023-01-08T04:31:37;9.60;99.90
24146;DHT22;12308;50.948;4.706;2023-01-08T04:34:03;9.70;99.90
24146;DHT22;12308;50.948;4.706;2023-01-08T04:36:28;9.60;99.90
24146;DHT22;12308;50.948;4.706;2023-01-08T04:38:54;9.60;99.90
24146;DHT22;12308;50.948;4.706;2023-01-08T04:41:19;9.60;99.90
24146;DHT22;12308;50.948;4.706;2023-01-08T04:43:45;9.60;99.90
24146;DHT22;12308;50.948;4.706;2023-01-08T04:46:11;9.50;99.90
24146;DHT22;12308;50.948;4.706;2023-01-08T04:48:36;9.60;99.90
24146;DHT22;12308;50.948;4.706;2023-01-08T04:51:03;9.60;99.90
24146;DHT22;12308;50.948;4.706;2023-01-08T04:53:34;9.50;99.90
24146;DHT22;12308;50.948;4.706;2023-01-08T04:56:07;9.40;99.90
24146;DHT22;12308;50.948;4.706;2023-01-08T04:58:34;9.40;99.90
24146;DHT22;12308;50.948;4.706;2023-01-08T05:01:00;9.30;99.90
24146;DHT22;12308;50.948;4.706;2023-01-08T05:03:26;9.40;99.90
24146;DHT22;12308;50.948;4.706;2023-01-08T05:05:52;9.20;99.90
24146;DHT22;12308;50.948;4.706;2023-01-08T05:08:17;9.00;99.90
24146;DHT22;12308;50.948;4.706;2023-01-08T05:10:43;9.00;99.90
24146;DHT22;12308;50.948;4.706;2023-01-08T05:13:08;8.90;99.90
24146;DHT22;12308;50.948;4.706;2023-01-08T05:15:34;8.80;99.90
24146;DHT22;12308;50.948;4.706;2023-01-08T05:18:02;8.80;99.90
24146;DHT22;12308;50.948;4.706;2023-01-08T05:20:28;8.80;99.90
24146;DHT22;12308;50.948;4.706;2023-01-08T05:22:54;8.70;99.90
24146;DHT22;12308;50.948;4.706;2023-01-08T05:25:21;8.80;99.90
24146;DHT22;12308;50.948;4.706;2023-01-08T05:27:47;8.80;99.90
24146;DHT22;12308;50.948;4.706;2023-01-08T05:30:13;8.80;99.90
24146;DHT22;12308;50.948;4.706;2023-01-08T05:32:38;8.70;99.90
24146;DHT22;12308;50.948;4.706;2023-01-08T05:35:04;8.70;99.90
24146;DHT22;12308;50.948;4.706;2023-01-08T05:37:32;8.60;99.90
24146;DHT22;12308;50.948;4.706;2023-01-08T05:39:57;8.40;99.90
24146;DHT22;12308;50.948;4.706;2023-01-08T05:42:23;8.40;99.90
24146;DHT22;12308;50.948;4.706;2023-01-08T05:44:49;8.40;99.90
24146;DHT22;12308;50.948;4.706;2023-01-08T05:47:14;8.30;99.90
24146;DHT22;12308;50.948;4.706;2023-01-08T05:49:40;8.40;99.90
24146;DHT22;12308;50.948;4.706;2023-01-08T05:52:06;8.30;99.90
24146;DHT22;12308;50.948;4.706;2023-01-08T05:54:31;8.20;99.90
24146;DHT22;12308;50.948;4.706;2023-01-08T05:56:57;8.20;99.90
24146;DHT22;12308;50.948;4.706;2023-01-08T05:59:23;8.20;99.90
24146;DHT22;12308;50.948;4.706;2023-01-08T06:01:48;8.10;99.90
24146;DHT22;12308;50.948;4.706;2023-01-08T06:04:14;8.10;99.90
24146;DHT22;12308;50.948;4.706;2023-01-08T06:06:39;8.10;99.90
24146;DHT22;12308;50.948;4.706;2023-01-08T06:09:05;8.10;99.90
24146;DHT22;12308;50.948;4.706;2023-01-08T06:11:31;8.00;99.90
24146;DHT22;12308;50.948;4.706;2023-01-08T06:13:56;7.90;99.90
24146;DHT22;12308;50.948;4.706;2023-01-08T06:16:22;8.00;99.90
24146;DHT22;12308;50.948;4.706;2023-01-08T06:18:47;8.00;99.90
24146;DHT22;12308;50.948;4.706;2023-01-08T06:21:13;7.90;99.90
24146;DHT22;12308;50.948;4.706;2023-01-08T06:23:39;7.90;99.90
24146;DHT22;12308;50.948;4.706;2023-01-08T06:26:05;8.00;99.90
24146;DHT22;12308;50.948;4.706;2023-01-08T06:28:32;8.00;99.90
24146;DHT22;12308;50.948;4.706;2023-01-08T06:31:01;8.10;99.90
24146;DHT22;12308;50.948;4.706;2023-01-08T06:33:27;8.10;99.90
24146;DHT22;12308;50.948;4.706;2023-01-08T06:35:53;8.00;99.90
24146;DHT22;12308;50.948;4.706;2023-01-08T06:38:19;8.00;99.90
24146;DHT22;12308;50.948;4.706;2023-01-08T06:40:46;8.00;99.90
24146;DHT22;12308;50.948;4.706;2023-01-08T06:43:12;8.00;99.90
24146;DHT22;12308;50.948;4.706;2023-01-08T06:45:37;8.00;99.90
24146;DHT22;12308;50.948;4.706;2023-01-08T06:48:05;8.10;99.90
24146;DHT22;12308;50.948;4.706;2023-01-08T06:50:32;8.10;99.90
24146;DHT22;12308;50.948;4.706;2023-01-08T06:52:58;8.10;99.90
24146;DHT22;12308;50.948;4.706;2023-01-08T06:55:24;8.00;99.90
24146;DHT22;12308;50.948;4.706;2023-01-08T06:57:57;8.00;99.90
24146;DHT22;12308;50.948;4.706;2023-01-08T07:00:23;8.00;99.90
24146;DHT22;12308;50.948;4.706;2023-01-08T07:02:51;7.90;99.90
24146;DHT22;12308;50.948;4.706;2023-01-08T07:05:16;8.00;99.90
24146;DHT22;12308;50.948;4.706;2023-01-08T07:07:43;8.00;99.90
24146;DHT22;12308;50.948;4.706;2023-01-08T07:10:09;8.10;99.90
24146;DHT22;12308;50.948;4.706;2023-01-08T07:12:35;8.10;99.90
24146;DHT22;12308;50.948;4.706;2023-01-08T07:15:01;8.20;99.90
24146;DHT22;12308;50.948;4.706;2023-01-08T07:17:27;8.30;99.90
24146;DHT22;12308;50.948;4.706;2023-01-08T07:19:52;8.20;99.90
24146;DHT22;12308;50.948;4.706;2023-01-08T07:22:18;8.30;99.90
24146;DHT22;12308;50.948;4.706;2023-01-08T07:24:45;8.30;99.90
24146;DHT22;12308;50.948;4.706;2023-01-08T07:27:11;8.40;99.90
24146;DHT22;12308;50.948;4.706;2023-01-08T07:29:36;8.40;99.90
24146;DHT22;12308;50.948;4.706;2023-01-08T07:32:02;8.30;99.90
24146;DHT22;12308;50.948;4.706;2023-01-08T07:34:28;8.30;99.90
24146;DHT22;12308;50.948;4.706;2023-01-08T07:36:54;8.40;99.90
24146;DHT22;12308;50.948;4.706;2023-01-08T07:39:19;8.40;99.90
24146;DHT22;12308;50.948;4.706;2023-01-08T07:41:45;8.50;99.90
24146;DHT22;12308;50.948;4.706;2023-01-08T07:44:11;8.40;99.90
24146;DHT22;12308;50.948;4.706;2023-01-08T07:46:36;8.40;99.90
24146;DHT22;12308;50.948;4.706;2023-01-08T07:49:02;8.40;99.90
24146;DHT22;12308;50.948;4.706;2023-01-08T07:51:28;8.40;99.90
24146;DHT22;12308;50.948;4.706;2023-01-08T07:53:54;8.40;99.90
24146;DHT22;12308;50.948;4.706;2023-01-08T07:56:21;8.50;99.90
24146;DHT22;12308;50.948;4.706;2023-01-08T07:58:47;8.60;99.90
24146;DHT22;12308;50.948;4.706;2023-01-08T08:01:14;8.60;99.90
24146;DHT22;12308;50.948;4.706;2023-01-08T08:03:40;8.80;99.90
24146;DHT22;12308;50.948;4.706;2023-01-08T08:06:06;8.80;99.90
24146;DHT22;12308;50.948;4.706;2023-01-08T08:08:33;8.90;99.90
24146;DHT22;12308;50.948;4.706;2023-01-08T08:10:59;8.90;99.90
24146;DHT22;12308;50.948;4.706;2023-01-08T08:13:24;8.80;99.90
24146;DHT22;12308;50.948;4.706;2023-01-08T08:15:50;8.80;99.90
24146;DHT22;12308;50.948;4.706;2023-01-08T08:18:16;8.80;99.90
24146;DHT22;12308;50.948;4.706;2023-01-08T08:20:41;8.80;99.90
24146;DHT22;12308;50.948;4.706;2023-01-08T08:23:10;8.80;99.90
24146;DHT22;12308;50.948;4.706;2023-01-08T08:25:39;8.80;99.90
24146;DHT22;12308;50.948;4.706;2023-01-08T08:28:06;8.80;99.90
24146;DHT22;12308;50.948;4.706;2023-01-08T08:30:33;8.90;99.90
24146;DHT22;12308;50.948;4.706;2023-01-08T08:33:02;9.10;99.90
24146;DHT22;12308;50.948;4.706;2023-01-08T08:35:29;9.20;99.90
24146;DHT22;12308;50.948;4.706;2023-01-08T08:37:55;9.20;99.90
24146;DHT22;12308;50.948;4.706;2023-01-08T08:40:21;9.30;99.90
24146;DHT22;12308;50.948;4.706;2023-01-08T08:42:46;9.40;99.90
24146;DHT22;12308;50.948;4.706;2023-01-08T08:45:13;9.40;99.90
24146;DHT22;12308;50.948;4.706;2023-01-08T08:47:38;9.40;99.90
24146;DHT22;12308;50.948;4.706;2023-01-08T08:50:05;9.50;99.90
24146;DHT22;12308;50.948;4.706;2023-01-08T08:52:32;9.60;99.90
24146;DHT22;12308;50.948;4.706;2023-01-08T08:54:58;9.60;99.90
24146;DHT22;12308;50.948;4.706;2023-01-08T08:57:25;9.60;99.90
24146;DHT22;12308;50.948;4.706;2023-01-08T08:59:51;9.50;99.90
24146;DHT22;12308;50.948;4.706;2023-01-08T09:02:17;9.60;99.90
24146;DHT22;12308;50.948;4.706;2023-01-08T09:04:42;9.60;99.90
24146;DHT22;12308;50.948;4.706;2023-01-08T09:07:08;9.70;99.90
24146;DHT22;12308;50.948;4.706;2023-01-08T09:09:34;9.80;99.90
24146;DHT22;12308;50.948;4.706;2023-01-08T09:11:59;9.80;99.90
24146;DHT22;12308;50.948;4.706;2023-01-08T09:14:25;9.70;99.90
24146;DHT22;12308;50.948;4.706;2023-01-08T09:16:51;9.70;99.90
24146;DHT22;12308;50.948;4.706;2023-01-08T09:19:17;9.80;99.90
24146;DHT22;12308;50.948;4.706;2023-01-08T09:21:42;9.80;99.90
24146;DHT22;12308;50.948;4.706;2023-01-08T09:24:08;9.70;99.90
24146;DHT22;12308;50.948;4.706;2023-01-08T09:26:34;9.70;99.90
24146;DHT22;12308;50.948;4.706;2023-01-08T09:28:59;9.70;99.90
24146;DHT22;12308;50.948;4.706;2023-01-08T09:31:25;9.70;99.90
24146;DHT22;12308;50.948;4.706;2023-01-08T09:33:51;9.80;99.90
24146;DHT22;12308;50.948;4.706;2023-01-08T09:36:17;9.80;99.90
24146;DHT22;12308;50.948;4.706;2023-01-08T09:38:43;9.90;99.90
24146;DHT22;12308;50.948;4.706;2023-01-08T09:44:14;10.10;99.90
24146;DHT22;12308;50.948;4.706;2023-01-08T09:46:41;10.20;99.90
24146;DHT22;12308;50.948;4.706;2023-01-08T09:49:14;10.30;99.90
24146;DHT22;12308;50.948;4.706;2023-01-08T09:51:41;10.30;99.90
24146;DHT22;12308;50.948;4.706;2023-01-08T09:54:14;10.40;99.90
24146;DHT22;12308;50.948;4.706;2023-01-08T09:56:40;10.50;99.90
24146;DHT22;12308;50.948;4.706;2023-01-08T09:59:06;10.40;99.90
24146;DHT22;12308;50.948;4.706;2023-01-08T10:01:36;10.20;99.90
24146;DHT22;12308;50.948;4.706;2023-01-08T10:04:23;10.20;99.90
24146;DHT22;12308;50.948;4.706;2023-01-08T10:09:39;10.20;99.90
24146;DHT22;12308;50.948;4.706;2023-01-08T10:12:05;10.00;99.90
24146;DHT22;12308;50.948;4.706;2023-01-08T10:14:34;10.00;99.90
24146;DHT22;12308;50.948;4.706;2023-01-08T10:19:49;10.10;99.90
24146;DHT22;12308;50.948;4.706;2023-01-08T10:22:18;10.20;99.90
24146;DHT22;12308;50.948;4.706;2023-01-08T10:24:45;10.10;99.90
24146;DHT22;12308;50.948;4.706;2023-01-08T10:27:16;10.20;99.90
24146;DHT22;12308;50.948;4.706;2023-01-08T10:29:43;10.30;99.90
24146;DHT22;12308;50.948;4.706;2023-01-08T10:32:26;10.30;99.90
24146;DHT22;12308;50.948;4.706;2023-01-08T10:34:55;10.40;99.90
24146;DHT22;12308;50.948;4.706;2023-01-08T10:37:31;10.30;99.90
24146;DHT22;12308;50.948;4.706;2023-01-08T10:40:27;10.30;99.90
24146;DHT22;12308;50.948;4.706;2023-01-08T10:42:55;10.20;99.90
24146;DHT22;12308;50.948;4.706;2023-01-08T10:45:24;10.20;99.90
24146;DHT22;12308;50.948;4.706;2023-01-08T10:47:54;10.30;99.90
24146;DHT22;12308;50.948;4.706;2023-01-08T10:50:27;10.40;99.90
24146;DHT22;12308;50.948;4.706;2023-01-08T10:52:55;10.40;99.90
24146;DHT22;12308;50.948;4.706;2023-01-08T10:55:28;10.50;99.90
24146;DHT22;12308;50.948;4.706;2023-01-08T10:58:01;10.50;99.90
24146;DHT22;12308;50.948;4.706;2023-01-08T11:00:33;10.40;99.90
24146;DHT22;12308;50.948;4.706;2023-01-08T11:03:01;10.50;99.90
24146;DHT22;12308;50.948;4.706;2023-01-08T11:05:38;10.60;99.90
24146;DHT22;12308;50.948;4.706;2023-01-08T11:08:11;10.60;99.90
24146;DHT22;12308;50.948;4.706;2023-01-08T11:10:40;10.50;99.90
24146;DHT22;12308;50.948;4.706;2023-01-08T11:13:06;10.50;99.90
24146;DHT22;12308;50.948;4.706;2023-01-08T11:15:36;10.50;99.90
24146;DHT22;12308;50.948;4.706;2023-01-08T11:20:39;10.60;99.90
24146;DHT22;12308;50.948;4.706;2023-01-08T11:28:57;10.90;99.90
24146;DHT22;12308;50.948;4.706;2023-01-08T11:31:33;11.10;99.90
24146;DHT22;12308;50.948;4.706;2023-01-08T11:34:27;11.00;99.90
24146;DHT22;12308;50.948;4.706;2023-01-08T11:37:13;11.10;99.90
24146;DHT22;12308;50.948;4.706;2023-01-08T11:39:39;11.00;99.90
24146;DHT22;12308;50.948;4.706;2023-01-08T11:44:49;10.90;99.90
24146;DHT22;12308;50.948;4.706;2023-01-08T11:55:56;11.00;99.90
24146;DHT22;12308;50.948;4.706;2023-01-08T12:04:26;10.90;99.90
24146;DHT22;12308;50.948;4.706;2023-01-08T12:07:05;11.00;99.90
24146;DHT22;12308;50.948;4.706;2023-01-08T12:09:43;11.10;99.90
24146;DHT22;12308;50.948;4.706;2023-01-08T12:20:36;11.20;99.90
24146;DHT22;12308;50.948;4.706;2023-01-08T12:23:14;11.20;99.90
24146;DHT22;12308;50.948;4.706;2023-01-08T12:25:54;11.20;99.90
24146;DHT22;12308;50.948;4.706;2023-01-08T12:29:02;11.20;99.90
24146;DHT22;12308;50.948;4.706;2023-01-08T12:31:54;11.20;99.90
24146;DHT22;12308;50.948;4.706;2023-01-08T12:34:45;11.40;99.90
24146;DHT22;12308;50.948;4.706;2023-01-08T12:37:22;11.30;99.90
24146;DHT22;12308;50.948;4.706;2023-01-08T12:40:11;11.40;99.90
24146;DHT22;12308;50.948;4.706;2023-01-08T12:42:42;11.40;99.90
24146;DHT22;12308;50.948;4.706;2023-01-08T12:45:29;11.40;99.90
24146;DHT22;12308;50.948;4.706;2023-01-08T12:48:07;11.60;99.90
24146;DHT22;12308;50.948;4.706;2023-01-08T12:59:49;11.50;99.90
24146;DHT22;12308;50.948;4.706;2023-01-08T13:04:47;11.60;99.90
24146;DHT22;12308;50.948;4.706;2023-01-08T13:07:24;11.50;99.90
24146;DHT22;12308;50.948;4.706;2023-01-08T13:10:02;11.60;99.90
24146;DHT22;12308;50.948;4.706;2023-01-08T13:12:35;11.70;99.90
24146;DHT22;12308;50.948;4.706;2023-01-08T13:15:03;11.60;99.90
24146;DHT22;12308;50.948;4.706;2023-01-08T13:17:29;11.70;99.90
24146;DHT22;12308;50.948;4.706;2023-01-08T13:20:00;11.80;99.90
24146;DHT22;12308;50.948;4.706;2023-01-08T13:22:29;11.70;99.90
24146;DHT22;12308;50.948;4.706;2023-01-08T13:27:39;11.50;99.90
24146;DHT22;12308;50.948;4.706;2023-01-08T13:30:41;11.70;99.90
24146;DHT22;12308;50.948;4.706;2023-01-08T13:36:11;11.90;99.90
24146;DHT22;12308;50.948;4.706;2023-01-08T13:38:42;12.10;99.90
24146;DHT22;12308;50.948;4.706;2023-01-08T13:41:29;12.00;99.90
24146;DHT22;12308;50.948;4.706;2023-01-08T13:44:01;12.00;99.90
24146;DHT22;12308;50.948;4.706;2023-01-08T13:46:31;11.70;99.90
24146;DHT22;12308;50.948;4.706;2023-01-08T13:49:18;11.60;99.90
24146;DHT22;12308;50.948;4.706;2023-01-08T13:51:47;11.60;99.90
24146;DHT22;12308;50.948;4.706;2023-01-08T13:56:44;11.40;99.90
24146;DHT22;12308;50.948;4.706;2023-01-08T13:59:30;11.40;99.90
24146;DHT22;12308;50.948;4.706;2023-01-08T14:01:58;11.50;99.90
24146;DHT22;12308;50.948;4.706;2023-01-08T14:04:25;11.60;99.90
24146;DHT22;12308;50.948;4.706;2023-01-08T14:06:51;11.70;99.90
24146;DHT22;12308;50.948;4.706;2023-01-08T14:09:22;11.60;99.90
24146;DHT22;12308;50.948;4.706;2023-01-08T14:11:51;11.50;99.90
24146;DHT22;12308;50.948;4.706;2023-01-08T14:14:19;11.50;99.90
24146;DHT22;12308;50.948;4.706;2023-01-08T14:16:47;11.40;99.90
24146;DHT22;12308;50.948;4.706;2023-01-08T14:19:22;11.50;99.90
24146;DHT22;12308;50.948;4.706;2023-01-08T14:21:54;11.70;99.90
24146;DHT22;12308;50.948;4.706;2023-01-08T14:24:22;11.60;99.90
24146;DHT22;12308;50.948;4.706;2023-01-08T14:26:56;11.60;99.90
24146;DHT22;12308;50.948;4.706;2023-01-08T14:29:24;11.60;99.90
24146;DHT22;12308;50.948;4.706;2023-01-08T14:31:53;11.40;99.90
24146;DHT22;12308;50.948;4.706;2023-01-08T14:34:24;11.30;99.90
24146;DHT22;12308;50.948;4.706;2023-01-08T14:36:52;11.30;99.90
24146;DHT22;12308;50.948;4.706;2023-01-08T14:41:49;11.40;99.90
24146;DHT22;12308;50.948;4.706;2023-01-08T14:44:34;11.50;99.90
24146;DHT22;12308;50.948;4.706;2023-01-08T14:47:00;11.50;99.90
24146;DHT22;12308;50.948;4.706;2023-01-08T14:49:28;11.40;99.90
24146;DHT22;12308;50.948;4.706;2023-01-08T14:51:56;11.20;99.90
24146;DHT22;12308;50.948;4.706;2023-01-08T14:54:32;11.30;99.90
24146;DHT22;12308;50.948;4.706;2023-01-08T14:56:59;11.20;99.90
24146;DHT22;12308;50.948;4.706;2023-01-08T14:59:36;11.00;99.90
24146;DHT22;12308;50.948;4.706;2023-01-08T15:02:03;11.10;99.90
24146;DHT22;12308;50.948;4.706;2023-01-08T15:04:30;11.00;99.90
24146;DHT22;12308;50.948;4.706;2023-01-08T15:07:08;10.90;99.90
24146;DHT22;12308;50.948;4.706;2023-01-08T15:09:40;10.90;99.90
24146;DHT22;12308;50.948;4.706;2023-01-08T15:12:21;10.70;99.90
24146;DHT22;12308;50.948;4.706;2023-01-08T15:14:46;10.70;99.90
24146;DHT22;12308;50.948;4.706;2023-01-08T15:17:19;10.60;99.90
24146;DHT22;12308;50.948;4.706;2023-01-08T15:19:47;10.60;99.90
24146;DHT22;12308;50.948;4.706;2023-01-08T15:22:25;10.60;99.90
24146;DHT22;12308;50.948;4.706;2023-01-08T15:25:02;10.60;99.90
24146;DHT22;12308;50.948;4.706;2023-01-08T15:27:29;10.70;99.90
24146;DHT22;12308;50.948;4.706;2023-01-08T15:29:56;10.70;99.90
24146;DHT22;12308;50.948;4.706;2023-01-08T15:32:33;10.70;99.90
24146;DHT22;12308;50.948;4.706;2023-01-08T15:35:01;10.80;99.90
24146;DHT22;12308;50.948;4.706;2023-01-08T15:37:36;10.80;99.90
24146;DHT22;12308;50.948;4.706;2023-01-08T15:40:02;10.80;99.90
24146;DHT22;12308;50.948;4.706;2023-01-08T15:42:30;10.80;99.90
24146;DHT22;12308;50.948;4.706;2023-01-08T15:45:21;10.70;99.90
24146;DHT22;12308;50.948;4.706;2023-01-08T15:47:48;10.80;99.90
24146;DHT22;12308;50.948;4.706;2023-01-08T15:50:13;10.80;99.90
24146;DHT22;12308;50.948;4.706;2023-01-08T15:52:41;10.80;99.90
24146;DHT22;12308;50.948;4.706;2023-01-08T15:55:18;10.90;99.90
24146;DHT22;12308;50.948;4.706;2023-01-08T15:57:44;10.80;99.90
24146;DHT22;12308;50.948;4.706;2023-01-08T16:00:14;10.70;99.90
24146;DHT22;12308;50.948;4.706;2023-01-08T16:02:47;10.80;99.90
24146;DHT22;12308;50.948;4.706;2023-01-08T16:05:14;10.80;99.90
24146;DHT22;12308;50.948;4.706;2023-01-08T16:07:41;10.80;99.90
24146;DHT22;12308;50.948;4.706;2023-01-08T16:10:08;10.80;99.90
24146;DHT22;12308;50.948;4.706;2023-01-08T16:12:34;10.80;99.90
24146;DHT22;12308;50.948;4.706;2023-01-08T16:15:00;11.00;99.90
24146;DHT22;12308;50.948;4.706;2023-01-08T16:17:28;11.00;99.90
24146;DHT22;12308;50.948;4.706;2023-01-08T16:19:54;11.00;99.90
24146;DHT22;12308;50.948;4.706;2023-01-08T16:22:20;11.00;99.90
24146;DHT22;12308;50.948;4.706;2023-01-08T16:24:45;11.00;99.90
24146;DHT22;12308;50.948;4.706;2023-01-08T16:27:11;11.00;99.90
24146;DHT22;12308;50.948;4.706;2023-01-08T16:29:37;11.00;99.90
24146;DHT22;12308;50.948;4.706;2023-01-08T16:32:02;10.90;99.90
24146;DHT22;12308;50.948;4.706;2023-01-08T16:34:28;10.90;99.90
24146;DHT22;12308;50.948;4.706;2023-01-08T16:36:54;10.80;99.90
24146;DHT22;12308;50.948;4.706;2023-01-08T16:39:19;10.70;99.90
24146;DHT22;12308;50.948;4.706;2023-01-08T16:41:46;10.80;99.90
24146;DHT22;12308;50.948;4.706;2023-01-08T16:44:23;10.60;99.90
24146;DHT22;12308;50.948;4.706;2023-01-08T16:46:49;10.50;99.90
24146;DHT22;12308;50.948;4.706;2023-01-08T16:49:16;10.40;99.90
24146;DHT22;12308;50.948;4.706;2023-01-08T16:51:42;10.40;99.90
24146;DHT22;12308;50.948;4.706;2023-01-08T16:54:11;10.30;99.90
24146;DHT22;12308;50.948;4.706;2023-01-08T16:56:37;10.20;99.90
24146;DHT22;12308;50.948;4.706;2023-01-08T16:59:03;10.10;99.90
24146;DHT22;12308;50.948;4.706;2023-01-08T17:01:29;10.10;99.90
24146;DHT22;12308;50.948;4.706;2023-01-08T17:03:54;10.00;99.90
24146;DHT22;12308;50.948;4.706;2023-01-08T17:06:20;10.00;99.90